Main page
METAR-TAF:

METAR-TAF

Airports :

Ras Al Khaimah International Airport

Ras al-Khaimah, United Arab Emirates

latitude: 25-37N, longitude: 055-56E, elevation: 31 m

Current weather observation

The report was made 50 minutes ago, at 07:00 UTC
Wind 10 kt from the Southeast
Temperature 35°C
Humidity 20%
Pressure 1012 hPa
Visibility 10 km or more
no clouds below 1500 m and no cumulonimbus

METAR: OMRK 030700Z 13010KT CAVOK 35/09 Q1012 A2988

Time: 11:50 (07:50 UTC)

Forecast

The report was made 2 hours and 59 minutes ago, at 04:51 UTC
Forecast valid from 03 at 06 UTC to 04 at 12 UTC
Wind 2 kt from variable directions
Visibility: 8000 m
Becoming
from 03 at 08 UTC to 03 at 10 UTC
Wind 13 kt from the North/Northwest
Becoming
from 03 at 15 UTC to 03 at 17 UTC
Wind 2 kt from variable directions
Becoming
from 04 at 08 UTC to 04 at 10 UTC
Wind 13 kt from the North

TAF: OMRK 030451Z 0306/0412 VRB02KT 8000 NSC BECMG 0308/0310 34013KT BECMG 0315/0317 VRB02KT BECMG 0408/0410 35013KT

Weather observations and forecasts of more than 4000 airports (METAR and TAF reports).

The available stations are represented by yellow and red dots on the map.

Hover mouse over dot to see the name of the station.

Then click to see weather observations and forecasts.

To change the map : click on the green buttons with a black cross to zoom in, on the green button with a dash to zoom out, or on the green arrows for adjacent maps.


METAR-TAF: